createdAt,value
2022-09-05T00:01:36.794Z,15.20
2022-09-05T00:04:25.006Z,15.22
2022-09-05T00:07:05.329Z,15.00
2022-09-05T00:10:02.181Z,15.09
2022-09-05T00:12:36.133Z,15.08
2022-09-05T00:15:19.741Z,15.09
2022-09-05T00:21:31.552Z,15.03
2022-09-05T00:24:32.507Z,14.97
2022-09-05T00:24:42.709Z,14.94
2022-09-05T00:27:26.986Z,15.01
2022-09-05T00:31:07.911Z,15.03
2022-09-05T00:33:31.484Z,14.97
2022-09-05T00:36:21.276Z,14.81
2022-09-05T00:38:59.200Z,14.76
2022-09-05T00:41:29.616Z,14.78
2022-09-05T00:44:03.710Z,14.69
2022-09-05T00:46:37.073Z,14.64
2022-09-05T00:49:19.238Z,14.71
2022-09-05T00:51:58.427Z,14.77
2022-09-05T00:54:56.044Z,14.36
2022-09-05T00:57:52.866Z,14.62
2022-09-05T01:00:23.957Z,14.54
2022-09-05T01:03:44.345Z,14.35
2022-09-05T01:06:19.279Z,14.24
2022-09-05T01:09:12.721Z,14.17
2022-09-05T01:11:54.237Z,14.14
2022-09-05T01:14:37.452Z,14.08
2022-09-05T01:17:28.481Z,13.36
2022-09-05T01:20:30.072Z,14.24
2022-09-05T01:23:58.229Z,14.27
2022-09-05T01:27:02.928Z,14.16
2022-09-05T01:29:44.901Z,14.05
2022-09-05T01:32:28.756Z,14.10
2022-09-05T01:35:25.847Z,14.17
2022-09-05T01:38:00.321Z,14.23
2022-09-05T01:41:01.164Z,14.24
2022-09-05T01:44:25.186Z,14.13
2022-09-05T01:47:11.390Z,14.05
2022-09-05T01:49:56.464Z,14.21
2022-09-05T01:53:04.950Z,14.11
2022-09-05T01:56:05.063Z,14.05
2022-09-05T01:58:53.708Z,13.98
2022-09-05T02:01:32.560Z,14.12
2022-09-05T02:04:21.906Z,14.04
2022-09-05T02:07:20.094Z,13.91
2022-09-05T02:10:26.869Z,13.93
2022-09-05T02:13:05.065Z,14.02
2022-09-05T02:15:59.977Z,13.98
2022-09-05T02:18:52.494Z,13.89
2022-09-05T02:21:33.421Z,13.87
2022-09-05T02:24:22.758Z,13.93
2022-09-05T02:27:10.880Z,13.86
2022-09-05T02:30:08.714Z,13.84
2022-09-05T02:32:59.463Z,13.79
2022-09-05T02:35:38.472Z,13.74
2022-09-05T02:42:46.427Z,13.66
2022-09-05T02:45:12.505Z,13.17
2022-09-05T02:45:20.664Z,13.58
2022-09-05T02:47:09.682Z,13.48
2022-09-05T02:51:11.183Z,13.58
2022-09-05T02:57:27.887Z,13.53
2022-09-05T02:57:42.871Z,13.50
2022-09-05T02:59:09.680Z,13.46
2022-09-05T03:01:56.935Z,13.47
2022-09-05T03:04:37.617Z,13.30
2022-09-05T03:07:24.293Z,13.40
2022-09-05T03:10:26.762Z,13.34
2022-09-05T03:13:54.624Z,13.38
2022-09-05T03:16:59.987Z,13.41
2022-09-05T03:20:00.125Z,13.33
2022-09-05T03:23:12.840Z,13.22
2022-09-05T03:26:45.974Z,13.04
2022-09-05T03:29:45.105Z,13.20
2022-09-05T03:33:02.938Z,13.15
2022-09-05T03:36:26.631Z,13.04
2022-09-05T03:40:15.202Z,12.70
2022-09-05T03:43:23.234Z,13.17
2022-09-05T03:46:13.209Z,13.09
2022-09-05T03:51:10.573Z,12.67
2022-09-05T03:57:20.297Z,13.03
2022-09-05T03:57:24.169Z,12.94
2022-09-05T03:59:03.740Z,12.92
2022-09-05T04:04:03.673Z,12.91
2022-09-05T04:08:19.485Z,12.91
2022-09-05T04:08:27.806Z,12.85
2022-09-05T04:10:29.496Z,12.90
2022-09-05T04:13:04.539Z,12.86
2022-09-05T04:15:40.818Z,12.80
2022-09-05T04:18:35.693Z,12.83
2022-09-05T04:21:10.475Z,12.89
2022-09-05T04:23:52.524Z,12.90
2022-09-05T04:26:47.834Z,12.91
2022-09-05T04:29:25.351Z,12.99
2022-09-05T04:32:17.501Z,13.02
2022-09-05T04:35:21.095Z,13.11
2022-09-05T04:37:59.553Z,12.39
2022-09-05T04:40:43.051Z,13.06
2022-09-05T04:43:21.979Z,13.07
2022-09-05T04:46:01.283Z,13.09
2022-09-05T04:48:39.271Z,13.09
2022-09-05T04:51:31.110Z,13.08
2022-09-05T04:54:30.481Z,13.07
2022-09-05T04:57:15.186Z,13.03
2022-09-05T05:04:29.520Z,13.13
2022-09-05T05:06:08.359Z,13.20
2022-09-05T05:06:11.539Z,12.89
2022-09-05T05:08:49.634Z,13.23
2022-09-05T05:17:08.822Z,13.29
2022-09-05T05:18:10.549Z,13.31
2022-09-05T05:18:12.508Z,13.34
2022-09-05T05:20:41.192Z,13.45
2022-09-05T05:23:14.490Z,13.51
2022-09-05T05:25:52.837Z,13.38
2022-09-05T05:28:28.979Z,13.68
2022-09-05T05:31:09.478Z,13.76
2022-09-05T05:33:41.546Z,13.73
2022-09-05T05:36:20.335Z,13.81
2022-09-05T05:38:58.117Z,13.42
2022-09-05T05:41:34.500Z,14.10
2022-09-05T05:44:14.487Z,14.01
2022-09-05T05:46:48.285Z,14.02
2022-09-05T05:49:45.576Z,14.39
2022-09-05T05:52:39.847Z,14.52
2022-09-05T05:55:50.497Z,14.61
2022-09-05T05:58:32.721Z,14.53
2022-09-05T06:02:05.132Z,13.69
2022-09-05T06:05:20.199Z,14.80
2022-09-05T06:10:41.704Z,14.84
2022-09-05T06:15:02.808Z,14.89
2022-09-05T06:15:10.483Z,14.89
2022-09-05T06:18:30.484Z,14.64
2022-09-05T06:22:13.270Z,15.15
2022-09-05T06:26:05.919Z,15.15
2022-09-05T06:28:56.357Z,15.22
2022-09-05T06:32:03.140Z,15.29
2022-09-05T06:35:26.037Z,14.70
2022-09-05T06:38:12.590Z,15.52
2022-09-05T06:40:55.761Z,15.32
2022-09-05T06:44:01.130Z,15.70
2022-09-05T06:46:54.544Z,15.03
2022-09-05T06:49:38.715Z,15.32
2022-09-05T06:53:19.845Z,15.75
2022-09-05T06:56:26.039Z,16.10
2022-09-05T07:00:17.621Z,16.19
2022-09-05T07:03:27.062Z,16.20
2022-09-05T07:06:02.047Z,16.47
2022-09-05T07:08:48.260Z,15.99
2022-09-05T07:11:24.442Z,16.64
2022-09-05T07:18:09.593Z,17.16
2022-09-05T07:24:09.848Z,17.05
2022-09-05T07:26:53.973Z,17.68
2022-09-05T07:29:33.154Z,17.94
2022-09-05T07:32:24.769Z,16.93
2022-09-05T07:34:56.247Z,17.90
2022-09-05T07:37:35.971Z,18.23
2022-09-05T07:40:24.735Z,17.54
2022-09-05T07:43:09.848Z,18.16
2022-09-05T07:45:55.981Z,18.84
2022-09-05T07:48:34.972Z,18.80
2022-09-05T07:56:55.836Z,19.00
2022-09-05T07:57:12.769Z,19.16
2022-09-05T07:59:58.895Z,18.60
2022-09-05T08:02:27.638Z,19.04
2022-09-05T08:05:05.515Z,19.08
2022-09-05T08:07:48.228Z,18.54
2022-09-05T08:10:35.642Z,19.25
2022-09-05T08:13:27.324Z,18.96
2022-09-05T08:16:13.301Z,19.01
2022-09-05T08:18:51.039Z,18.97
2022-09-05T08:21:28.074Z,18.99
2022-09-05T08:24:13.956Z,19.10
2022-09-05T08:26:52.046Z,19.37
2022-09-05T08:29:34.484Z,19.53
2022-09-05T08:32:09.204Z,19.56
2022-09-05T08:34:47.870Z,19.22
2022-09-05T08:37:22.206Z,18.80
2022-09-05T08:40:07.239Z,18.81
2022-09-05T08:43:35.240Z,19.47
2022-09-05T08:46:41.284Z,19.55
2022-09-05T08:48:56.482Z,19.27
2022-09-05T08:51:50.448Z,19.25
2022-09-05T08:54:36.640Z,19.54
2022-09-05T08:57:20.191Z,19.71
2022-09-05T09:00:20.330Z,19.56
2022-09-05T09:03:22.782Z,19.80
2022-09-05T09:06:28.050Z,20.00
2022-09-05T09:09:14.699Z,20.11
2022-09-05T09:11:52.701Z,20.18
2022-09-05T09:14:47.388Z,20.25
2022-09-05T09:17:44.041Z,20.36
2022-09-05T09:20:33.512Z,20.41
2022-09-05T09:23:08.282Z,20.71
2022-09-05T09:26:15.921Z,20.70
2022-09-05T09:29:00.773Z,20.45
2022-09-05T09:31:59.369Z,20.74
2022-09-05T09:34:49.253Z,20.83
2022-09-05T09:37:59.617Z,20.97
2022-09-05T09:41:32.367Z,21.06
2022-09-05T09:44:52.421Z,20.92
2022-09-05T09:47:41.893Z,21.06
2022-09-05T09:50:30.124Z,21.10
2022-09-05T09:53:29.846Z,21.11
2022-09-05T09:56:53.501Z,21.34
2022-09-05T10:00:03.454Z,21.34
2022-09-05T10:07:59.500Z,21.53
2022-09-05T10:10:43.934Z,21.66
2022-09-05T10:10:54.674Z,21.72
2022-09-05T10:13:42.469Z,21.90
2022-09-05T10:17:09.992Z,22.07
2022-09-05T10:20:32.738Z,22.09
2022-09-05T10:23:34.433Z,21.99
2022-09-05T10:27:16.033Z,21.80
2022-09-05T10:30:07.752Z,21.94
2022-09-05T10:35:13.966Z,21.82
2022-09-05T10:36:11.985Z,21.93
2022-09-05T10:38:49.933Z,22.25
2022-09-05T10:41:30.533Z,22.37
2022-09-05T10:44:03.287Z,22.09
2022-09-05T10:46:52.773Z,22.64
2022-09-05T10:49:30.313Z,23.06
2022-09-05T10:52:19.086Z,23.24
2022-09-05T10:55:14.916Z,23.50
2022-09-05T10:58:01.975Z,23.72
2022-09-05T11:02:19.199Z,23.70
2022-09-05T11:03:52.526Z,23.75
2022-09-05T11:06:37.216Z,24.00
2022-09-05T11:09:16.370Z,23.83
2022-09-05T11:12:03.072Z,24.01
2022-09-05T11:14:49.464Z,23.98
2022-09-05T11:17:33.230Z,24.31
2022-09-05T11:20:35.539Z,24.61
2022-09-05T11:23:14.741Z,24.42
2022-09-05T11:25:47.851Z,24.66
2022-09-05T11:28:32.043Z,24.98
2022-09-05T11:31:13.543Z,25.08
2022-09-05T11:39:56.618Z,24.37
2022-09-05T11:39:59.253Z,24.61
2022-09-05T11:41:04.879Z,23.79
2022-09-05T11:44:24.983Z,24.08
2022-09-05T11:47:44.600Z,24.67
2022-09-05T11:50:58.246Z,24.55
2022-09-05T11:54:09.327Z,24.18
2022-09-05T11:57:33.504Z,24.38
2022-09-05T12:00:33.783Z,24.21
2022-09-05T12:03:59.260Z,23.86
2022-09-05T12:07:26.818Z,23.72
2022-09-05T12:13:46.390Z,23.78
2022-09-05T12:16:51.772Z,23.73
2022-09-05T12:19:34.634Z,23.65
2022-09-05T12:22:24.762Z,23.59
2022-09-05T12:27:35.895Z,23.85
2022-09-05T12:29:28.055Z,24.28
2022-09-05T12:32:50.319Z,24.53
2022-09-05T12:36:10.578Z,24.15
2022-09-05T12:40:59.379Z,24.36
2022-09-05T12:41:35.915Z,23.33
2022-09-05T12:42:09.539Z,23.43
2022-09-05T12:44:42.501Z,24.03
2022-09-05T12:47:16.732Z,23.44
2022-09-05T12:50:14.356Z,22.64
2022-09-05T12:52:46.831Z,23.30
2022-09-05T12:55:28.463Z,22.66
2022-09-05T13:03:02.596Z,23.65
2022-09-05T13:03:12.926Z,23.48
2022-09-05T13:04:16.672Z,23.56
2022-09-05T13:06:47.127Z,23.78
2022-09-05T13:10:02.683Z,23.92
2022-09-05T13:14:52.606Z,23.99
2022-09-05T13:15:24.310Z,24.01
2022-09-05T13:18:01.290Z,24.01
2022-09-05T13:20:36.594Z,24.07
2022-09-05T13:23:31.429Z,23.94
2022-09-05T13:26:11.466Z,23.99
2022-09-05T13:29:08.378Z,24.15
2022-09-05T13:38:00.005Z,24.40
2022-09-05T13:38:00.928Z,24.33
2022-09-05T13:38:47.559Z,24.81
2022-09-05T13:41:06.493Z,24.70
2022-09-05T13:44:00.083Z,24.27
2022-09-05T13:46:58.634Z,23.79
2022-09-05T13:49:35.208Z,24.32
2022-09-05T13:52:29.143Z,24.60
2022-09-05T13:55:20.169Z,24.83
2022-09-05T13:57:56.583Z,25.29
2022-09-05T14:01:17.647Z,24.72
2022-09-05T14:08:17.885Z,24.19
2022-09-05T14:11:47.123Z,24.38
2022-09-05T14:17:54.192Z,24.17
2022-09-05T14:20:49.404Z,24.42
2022-09-05T14:23:22.299Z,24.46
2022-09-05T14:26:00.481Z,24.69
2022-09-05T14:28:40.930Z,24.24
2022-09-05T14:37:34.165Z,24.00
2022-09-05T14:37:38.868Z,23.67
2022-09-05T14:38:05.716Z,23.91
2022-09-05T14:42:07.415Z,23.88
2022-09-05T14:45:11.413Z,23.57
2022-09-05T14:48:30.498Z,23.85
2022-09-05T14:51:30.129Z,23.65
2022-09-05T14:54:02.646Z,23.08
2022-09-05T15:02:09.637Z,23.83
2022-09-05T15:02:42.230Z,23.82
2022-09-05T15:02:56.843Z,23.31
2022-09-05T15:05:42.026Z,23.35
2022-09-05T15:11:10.884Z,23.25
2022-09-05T15:12:14.375Z,22.40
2022-09-05T15:14:04.011Z,23.52
2022-09-05T15:16:38.690Z,23.49
2022-09-05T15:19:12.031Z,23.18
2022-09-05T15:21:41.822Z,23.49
2022-09-05T15:24:21.254Z,22.96
2022-09-05T15:26:54.719Z,23.80
2022-09-05T15:29:26.930Z,23.89
2022-09-05T15:32:14.608Z,24.18
2022-09-05T15:34:50.262Z,24.05
2022-09-05T15:37:37.199Z,23.25
2022-09-05T15:40:22.887Z,23.43
2022-09-05T15:42:56.860Z,22.40
2022-09-05T15:45:30.169Z,23.34
2022-09-05T15:48:12.653Z,23.15
2022-09-05T15:50:51.477Z,22.72
2022-09-05T15:53:29.210Z,22.74
2022-09-05T15:56:18.860Z,22.99
2022-09-05T15:58:54.977Z,23.15
2022-09-05T16:01:48.577Z,23.35
2022-09-05T16:08:15.363Z,23.66
2022-09-05T16:10:35.026Z,23.01
2022-09-05T16:10:39.980Z,23.41
2022-09-05T16:13:15.701Z,22.97
2022-09-05T16:19:33.504Z,22.78
2022-09-05T16:23:13.192Z,22.43
2022-09-05T16:23:27.592Z,22.10
2022-09-05T16:24:58.137Z,22.14
2022-09-05T16:27:45.347Z,22.11
2022-09-05T16:30:26.795Z,21.17
2022-09-05T16:33:14.664Z,21.71
2022-09-05T16:35:56.667Z,22.08
2022-09-05T16:38:49.248Z,21.48
2022-09-05T16:41:39.336Z,21.61
2022-09-05T16:44:25.107Z,22.10
2022-09-05T16:47:11.207Z,22.01
2022-09-05T16:49:49.598Z,21.90
2022-09-05T16:52:32.289Z,21.92
2022-09-05T16:55:10.000Z,20.50
2022-09-05T16:57:57.827Z,21.30
2022-09-05T17:00:26.732Z,21.11
2022-09-05T17:03:17.877Z,21.65
2022-09-05T17:06:25.501Z,21.59
2022-09-05T17:08:56.821Z,21.42
2022-09-05T17:11:51.029Z,21.17
2022-09-05T17:14:41.063Z,21.37
2022-09-05T17:17:55.249Z,21.09
2022-09-05T17:20:14.839Z,20.69
2022-09-05T17:25:52.751Z,19.63
2022-09-05T17:29:31.938Z,20.42
2022-09-05T17:29:49.177Z,19.61
2022-09-05T17:32:06.499Z,20.55
2022-09-05T17:35:17.379Z,19.68
2022-09-05T17:38:38.944Z,20.20
2022-09-05T17:42:06.242Z,19.91
2022-09-05T17:44:55.921Z,19.88
2022-09-05T17:47:35.914Z,19.81
2022-09-05T17:50:20.331Z,19.81
2022-09-05T17:53:25.630Z,20.00
2022-09-05T17:56:40.870Z,19.82
2022-09-05T17:59:29.097Z,19.12
2022-09-05T18:02:35.120Z,19.06
2022-09-05T18:05:08.983Z,19.53
2022-09-05T18:07:58.068Z,18.46
2022-09-05T18:11:14.439Z,19.38
2022-09-05T18:14:07.847Z,19.40
2022-09-05T18:17:35.866Z,19.29
2022-09-05T18:20:09.429Z,18.93
2022-09-05T18:22:44.127Z,19.10
2022-09-05T18:28:35.816Z,17.66
2022-09-05T18:32:00.233Z,18.66
2022-09-05T18:35:37.366Z,18.80
2022-09-05T18:38:50.154Z,18.65
2022-09-05T18:41:23.323Z,18.67
2022-09-05T18:44:13.094Z,18.16
2022-09-05T18:46:51.104Z,18.90
2022-09-05T18:50:23.969Z,19.10
2022-09-05T18:52:23.682Z,18.76
2022-09-05T18:56:00.774Z,18.18
2022-09-05T18:57:57.913Z,18.44
2022-09-05T19:00:44.624Z,18.84
2022-09-05T19:03:24.790Z,19.10
2022-09-05T19:06:34.943Z,18.69
2022-09-05T19:08:57.584Z,18.95
2022-09-05T19:11:33.177Z,17.95
2022-09-05T19:14:25.370Z,18.57
2022-09-05T19:17:07.899Z,18.53
2022-09-05T19:20:31.994Z,18.48
2022-09-05T19:23:10.185Z,18.47
2022-09-05T19:25:43.828Z,17.55
2022-09-05T19:32:51.549Z,18.45
2022-09-05T19:37:06.832Z,18.38
2022-09-05T19:37:23.917Z,18.35
2022-09-05T19:42:29.833Z,18.08
2022-09-05T19:47:30.926Z,17.97
2022-09-05T19:47:51.864Z,18.08
2022-09-05T19:48:35.063Z,18.16
2022-09-05T19:51:17.032Z,16.85
2022-09-05T19:54:03.781Z,17.78
2022-09-05T19:56:39.692Z,17.81
2022-09-05T19:59:22.686Z,17.77
2022-09-05T20:01:53.268Z,16.88
2022-09-05T20:04:24.142Z,16.94
2022-09-05T20:06:54.444Z,17.56
2022-09-05T20:09:25.508Z,17.34
2022-09-05T20:11:58.204Z,16.59
2022-09-05T20:14:31.100Z,17.49
2022-09-05T20:17:18.410Z,16.35
2022-09-05T20:19:47.780Z,17.39
2022-09-05T20:22:47.692Z,17.11
2022-09-05T20:25:35.356Z,17.25
2022-09-05T20:28:09.827Z,17.22
2022-09-05T20:30:44.550Z,16.69
2022-09-05T20:33:22.792Z,17.26
2022-09-05T20:40:47.105Z,16.97
2022-09-05T20:43:22.289Z,17.08
2022-09-05T20:43:22.467Z,16.95
2022-09-05T20:44:42.603Z,16.92
2022-09-05T20:49:55.509Z,16.95
2022-09-05T20:54:18.231Z,16.75
2022-09-05T20:54:18.675Z,17.03
2022-09-05T20:56:06.164Z,17.07
2022-09-05T20:58:38.874Z,16.38
2022-09-05T21:01:21.977Z,16.72
2022-09-05T21:03:58.533Z,16.71
2022-09-05T21:06:33.799Z,16.57
2022-09-05T21:09:22.594Z,16.57
2022-09-05T21:11:56.202Z,16.48
2022-09-05T21:14:29.412Z,16.50
2022-09-05T21:17:15.895Z,15.80
2022-09-05T21:19:53.488Z,16.54
2022-09-05T21:22:31.544Z,16.11
2022-09-05T21:25:25.044Z,16.39
2022-09-05T21:28:32.687Z,16.55
2022-09-05T21:31:13.638Z,16.46
2022-09-05T21:33:46.224Z,15.46
2022-09-05T21:36:16.910Z,16.32
2022-09-05T21:38:46.010Z,15.46
2022-09-05T21:41:18.120Z,15.63
2022-09-05T21:47:38.106Z,16.47
2022-09-05T21:47:39.510Z,16.35
2022-09-05T21:49:27.301Z,16.18
2022-09-05T21:51:56.548Z,16.25
2022-09-05T21:59:20.741Z,16.06
2022-09-05T21:59:22.283Z,16.11
2022-09-05T22:00:17.374Z,16.18
2022-09-05T22:02:47.062Z,16.00
2022-09-05T22:05:16.342Z,15.94
2022-09-05T22:07:45.254Z,16.04
2022-09-05T22:10:14.067Z,16.08
2022-09-05T22:12:43.790Z,15.83
2022-09-05T22:15:27.305Z,15.71
2022-09-05T22:18:17.464Z,15.56
2022-09-05T22:21:31.988Z,15.72
2022-09-05T22:23:45.413Z,15.91
2022-09-05T22:26:16.490Z,15.77
2022-09-05T22:28:49.107Z,15.45
2022-09-05T22:31:20.101Z,15.62
2022-09-05T22:33:51.134Z,15.91
2022-09-05T22:36:20.239Z,15.68
2022-09-05T22:38:48.827Z,15.88
2022-09-05T22:41:17.576Z,15.79
2022-09-05T22:43:58.912Z,15.72
2022-09-05T22:46:29.097Z,15.66
2022-09-05T22:48:57.817Z,15.76
2022-09-05T22:51:27.648Z,15.75
2022-09-05T22:53:56.323Z,15.48
2022-09-05T22:56:33.712Z,15.67
2022-09-05T22:59:03.833Z,15.63
2022-09-05T23:01:34.584Z,15.19
2022-09-05T23:04:05.964Z,15.78
2022-09-05T23:06:35.197Z,15.87
2022-09-05T23:09:04.046Z,15.99
2022-09-05T23:11:32.677Z,15.99
2022-09-05T23:14:01.261Z,15.78
2022-09-05T23:16:30.290Z,15.71
2022-09-05T23:19:00.450Z,16.05
2022-09-05T23:21:29.217Z,16.14
2022-09-05T23:23:57.801Z,16.15
2022-09-05T23:26:26.763Z,16.24
2022-09-05T23:28:55.447Z,16.30
2022-09-05T23:31:24.500Z,16.32
2022-09-05T23:33:55.575Z,16.08
2022-09-05T23:36:25.829Z,16.16
2022-09-05T23:38:54.497Z,16.23
2022-09-05T23:41:23.704Z,16.22
2022-09-05T23:43:52.377Z,15.36
2022-09-05T23:46:21.020Z,16.13
2022-09-05T23:48:49.758Z,16.06
2022-09-05T23:51:18.545Z,16.02
2022-09-05T23:53:48.606Z,15.97
2022-09-05T23:56:17.278Z,14.02
2022-09-05T23:58:46.248Z,15.79
